sensor_id;sensor_type;location;lat;lon;timestamp;P1;durP1;ratioP1;P2;durP2;ratioP2
14704;SDS011;7442;50.840;3.396;2023-06-19T00:01:54;2.98;;;2.67;;
14704;SDS011;7442;50.840;3.396;2023-06-19T00:04:22;6.05;;;2.85;;
14704;SDS011;7442;50.840;3.396;2023-06-19T00:06:49;3.37;;;3.08;;
14704;SDS011;7442;50.840;3.396;2023-06-19T00:09:17;4.60;;;2.87;;
14704;SDS011;7442;50.840;3.396;2023-06-19T00:11:45;2.83;;;2.40;;
14704;SDS011;7442;50.840;3.396;2023-06-19T00:14:13;3.30;;;3.00;;
14704;SDS011;7442;50.840;3.396;2023-06-19T00:16:41;3.25;;;2.50;;
14704;SDS011;7442;50.840;3.396;2023-06-19T00:19:08;3.60;;;2.80;;
14704;SDS011;7442;50.840;3.396;2023-06-19T00:21:37;2.87;;;2.62;;
14704;SDS011;7442;50.840;3.396;2023-06-19T00:24:05;5.20;;;3.17;;
14704;SDS011;7442;50.840;3.396;2023-06-19T00:26:33;4.28;;;2.60;;
14704;SDS011;7442;50.840;3.396;2023-06-19T00:29:01;4.00;;;2.40;;
14704;SDS011;7442;50.840;3.396;2023-06-19T00:31:29;2.90;;;2.70;;
14704;SDS011;7442;50.840;3.396;2023-06-19T00:33:57;2.90;;;2.50;;
14704;SDS011;7442;50.840;3.396;2023-06-19T00:36:25;4.70;;;2.42;;
14704;SDS011;7442;50.840;3.396;2023-06-19T00:38:52;3.42;;;2.47;;
14704;SDS011;7442;50.840;3.396;2023-06-19T00:41:20;3.17;;;2.62;;
14704;SDS011;7442;50.840;3.396;2023-06-19T00:43:48;3.40;;;2.75;;
14704;SDS011;7442;50.840;3.396;2023-06-19T00:46:18;3.52;;;2.70;;
14704;SDS011;7442;50.840;3.396;2023-06-19T00:48:46;2.90;;;2.33;;
14704;SDS011;7442;50.840;3.396;2023-06-19T00:51:15;3.00;;;2.70;;
14704;SDS011;7442;50.840;3.396;2023-06-19T00:53:43;2.92;;;2.47;;
14704;SDS011;7442;50.840;3.396;2023-06-19T00:56:11;7.00;;;2.60;;
14704;SDS011;7442;50.840;3.396;2023-06-19T00:58:41;3.10;;;2.80;;
14704;SDS011;7442;50.840;3.396;2023-06-19T01:01:08;3.05;;;2.47;;
14704;SDS011;7442;50.840;3.396;2023-06-19T01:03:36;4.45;;;2.40;;
14704;SDS011;7442;50.840;3.396;2023-06-19T01:06:13;2.98;;;2.55;;
14704;SDS011;7442;50.840;3.396;2023-06-19T01:09:05;2.95;;;2.65;;
14704;SDS011;7442;50.840;3.396;2023-06-19T01:11:32;2.98;;;2.47;;
14704;SDS011;7442;50.840;3.396;2023-06-19T01:14:06;3.50;;;2.50;;
14704;SDS011;7442;50.840;3.396;2023-06-19T01:16:34;3.52;;;2.50;;
14704;SDS011;7442;50.840;3.396;2023-06-19T01:19:03;3.80;;;2.40;;
14704;SDS011;7442;50.840;3.396;2023-06-19T01:21:32;3.62;;;2.30;;
14704;SDS011;7442;50.840;3.396;2023-06-19T01:24:00;3.70;;;2.58;;
14704;SDS011;7442;50.840;3.396;2023-06-19T01:26:28;3.27;;;2.50;;
14704;SDS011;7442;50.840;3.396;2023-06-19T01:28:56;2.95;;;2.12;;
14704;SDS011;7442;50.840;3.396;2023-06-19T01:31:31;2.80;;;2.45;;
14704;SDS011;7442;50.840;3.396;2023-06-19T01:34:04;3.52;;;2.30;;
14704;SDS011;7442;50.840;3.396;2023-06-19T01:36:34;2.87;;;2.33;;
14704;SDS011;7442;50.840;3.396;2023-06-19T01:39:03;3.80;;;2.35;;
14704;SDS011;7442;50.840;3.396;2023-06-19T01:41:32;4.17;;;2.50;;
14704;SDS011;7442;50.840;3.396;2023-06-19T01:44:00;2.58;;;2.37;;
14704;SDS011;7442;50.840;3.396;2023-06-19T01:46:29;2.65;;;2.45;;
14704;SDS011;7442;50.840;3.396;2023-06-19T01:48:56;2.35;;;2.15;;
14704;SDS011;7442;50.840;3.396;2023-06-19T01:51:25;3.42;;;2.30;;
14704;SDS011;7442;50.840;3.396;2023-06-19T01:53:52;2.72;;;2.22;;
14704;SDS011;7442;50.840;3.396;2023-06-19T01:56:20;3.85;;;2.05;;
14704;SDS011;7442;50.840;3.396;2023-06-19T01:58:50;3.40;;;2.27;;
14704;SDS011;7442;50.840;3.396;2023-06-19T02:01:18;2.50;;;2.22;;
14704;SDS011;7442;50.840;3.396;2023-06-19T02:03:46;2.42;;;2.20;;
14704;SDS011;7442;50.840;3.396;2023-06-19T02:06:13;3.83;;;2.58;;
14704;SDS011;7442;50.840;3.396;2023-06-19T02:08:41;2.35;;;2.08;;
14704;SDS011;7442;50.840;3.396;2023-06-19T02:11:09;2.50;;;2.27;;
14704;SDS011;7442;50.840;3.396;2023-06-19T02:13:37;3.70;;;2.42;;
14704;SDS011;7442;50.840;3.396;2023-06-19T02:16:05;2.27;;;2.08;;
14704;SDS011;7442;50.840;3.396;2023-06-19T02:18:32;2.90;;;2.45;;
14704;SDS011;7442;50.840;3.396;2023-06-19T02:21:00;2.33;;;2.12;;
14704;SDS011;7442;50.840;3.396;2023-06-19T02:23:28;3.27;;;2.50;;
14704;SDS011;7442;50.840;3.396;2023-06-19T02:25:56;2.72;;;2.22;;
14704;SDS011;7442;50.840;3.396;2023-06-19T02:28:24;2.65;;;2.45;;
14704;SDS011;7442;50.840;3.396;2023-06-19T02:30:56;3.33;;;2.20;;
14704;SDS011;7442;50.840;3.396;2023-06-19T02:33:21;2.45;;;2.25;;
14704;SDS011;7442;50.840;3.396;2023-06-19T02:35:49;2.50;;;2.30;;
14704;SDS011;7442;50.840;3.396;2023-06-19T02:38:16;3.22;;;2.50;;
14704;SDS011;7442;50.840;3.396;2023-06-19T02:40:46;2.70;;;2.33;;
14704;SDS011;7442;50.840;3.396;2023-06-19T02:43:13;3.15;;;2.50;;
14704;SDS011;7442;50.840;3.396;2023-06-19T02:45:41;3.35;;;2.65;;
14704;SDS011;7442;50.840;3.396;2023-06-19T02:48:09;3.15;;;2.50;;
14704;SDS011;7442;50.840;3.396;2023-06-19T02:50:37;5.10;;;2.40;;
14704;SDS011;7442;50.840;3.396;2023-06-19T02:53:05;3.52;;;2.80;;
14704;SDS011;7442;50.840;3.396;2023-06-19T02:55:33;2.90;;;2.70;;
14704;SDS011;7442;50.840;3.396;2023-06-19T02:58:00;2.72;;;2.40;;
14704;SDS011;7442;50.840;3.396;2023-06-19T03:00:29;3.65;;;2.70;;
14704;SDS011;7442;50.840;3.396;2023-06-19T03:02:57;2.60;;;2.40;;
14704;SDS011;7442;50.840;3.396;2023-06-19T03:05:25;3.17;;;2.87;;
14704;SDS011;7442;50.840;3.396;2023-06-19T03:07:53;3.02;;;2.67;;
14704;SDS011;7442;50.840;3.396;2023-06-19T03:10:20;2.70;;;2.50;;
14704;SDS011;7442;50.840;3.396;2023-06-19T03:12:48;3.87;;;2.60;;
14704;SDS011;7442;50.840;3.396;2023-06-19T03:15:16;3.08;;;2.77;;
14704;SDS011;7442;50.840;3.396;2023-06-19T03:17:44;3.40;;;2.70;;
14704;SDS011;7442;50.840;3.396;2023-06-19T03:20:11;5.03;;;2.90;;
14704;SDS011;7442;50.840;3.396;2023-06-19T03:22:40;3.17;;;2.95;;
14704;SDS011;7442;50.840;3.396;2023-06-19T03:25:08;2.80;;;2.60;;
14704;SDS011;7442;50.840;3.396;2023-06-19T03:27:36;3.22;;;2.60;;
14704;SDS011;7442;50.840;3.396;2023-06-19T03:30:04;4.25;;;3.05;;
14704;SDS011;7442;50.840;3.396;2023-06-19T03:32:34;3.70;;;3.12;;
14704;SDS011;7442;50.840;3.396;2023-06-19T03:35:01;3.62;;;2.92;;
14704;SDS011;7442;50.840;3.396;2023-06-19T03:37:31;4.03;;;2.60;;
14704;SDS011;7442;50.840;3.396;2023-06-19T03:40:01;3.37;;;3.08;;
14704;SDS011;7442;50.840;3.396;2023-06-19T03:42:32;3.83;;;3.30;;
14704;SDS011;7442;50.840;3.396;2023-06-19T03:45:00;3.95;;;2.98;;
14704;SDS011;7442;50.840;3.396;2023-06-19T03:47:28;3.67;;;2.92;;
14704;SDS011;7442;50.840;3.396;2023-06-19T03:49:57;4.20;;;3.33;;
14704;SDS011;7442;50.840;3.396;2023-06-19T03:52:24;3.35;;;2.85;;
14704;SDS011;7442;50.840;3.396;2023-06-19T03:54:52;3.70;;;3.08;;
14704;SDS011;7442;50.840;3.396;2023-06-19T03:57:20;3.50;;;3.10;;
14704;SDS011;7442;50.840;3.396;2023-06-19T03:59:48;3.55;;;3.25;;
14704;SDS011;7442;50.840;3.396;2023-06-19T04:02:16;3.72;;;3.17;;
14704;SDS011;7442;50.840;3.396;2023-06-19T04:04:43;3.47;;;3.17;;
14704;SDS011;7442;50.840;3.396;2023-06-19T04:07:11;3.55;;;2.95;;
14704;SDS011;7442;50.840;3.396;2023-06-19T04:09:39;3.60;;;3.30;;
14704;SDS011;7442;50.840;3.396;2023-06-19T04:12:07;3.45;;;3.12;;
14704;SDS011;7442;50.840;3.396;2023-06-19T04:14:36;3.60;;;3.30;;
14704;SDS011;7442;50.840;3.396;2023-06-19T04:17:03;3.95;;;3.25;;
14704;SDS011;7442;50.840;3.396;2023-06-19T04:19:31;3.62;;;3.17;;
14704;SDS011;7442;50.840;3.396;2023-06-19T04:21:59;3.52;;;3.20;;
14704;SDS011;7442;50.840;3.396;2023-06-19T04:24:27;3.42;;;3.12;;
14704;SDS011;7442;50.840;3.396;2023-06-19T04:26:55;3.98;;;3.10;;
14704;SDS011;7442;50.840;3.396;2023-06-19T04:29:23;3.77;;;3.02;;
14704;SDS011;7442;50.840;3.396;2023-06-19T04:31:51;3.30;;;2.95;;
14704;SDS011;7442;50.840;3.396;2023-06-19T04:34:18;3.75;;;3.33;;
14704;SDS011;7442;50.840;3.396;2023-06-19T04:36:47;3.60;;;3.25;;
14704;SDS011;7442;50.840;3.396;2023-06-19T04:39:15;3.37;;;3.08;;
14704;SDS011;7442;50.840;3.396;2023-06-19T04:41:43;3.58;;;3.27;;
14704;SDS011;7442;50.840;3.396;2023-06-19T04:44:11;4.25;;;3.85;;
14704;SDS011;7442;50.840;3.396;2023-06-19T04:46:39;3.72;;;3.42;;
14704;SDS011;7442;50.840;3.396;2023-06-19T04:49:07;3.65;;;2.95;;
14704;SDS011;7442;50.840;3.396;2023-06-19T04:51:35;4.00;;;3.60;;
14704;SDS011;7442;50.840;3.396;2023-06-19T04:54:03;3.55;;;2.95;;
14704;SDS011;7442;50.840;3.396;2023-06-19T04:56:34;3.20;;;2.90;;
14704;SDS011;7442;50.840;3.396;2023-06-19T04:59:03;3.42;;;3.12;;
14704;SDS011;7442;50.840;3.396;2023-06-19T05:01:31;3.60;;;3.30;;
14704;SDS011;7442;50.840;3.396;2023-06-19T05:03:59;4.00;;;3.60;;
14704;SDS011;7442;50.840;3.396;2023-06-19T05:06:26;4.62;;;3.60;;
14704;SDS011;7442;50.840;3.396;2023-06-19T05:08:54;4.60;;;3.47;;
14704;SDS011;7442;50.840;3.396;2023-06-19T05:11:22;4.70;;;3.75;;
14704;SDS011;7442;50.840;3.396;2023-06-19T05:13:49;3.75;;;3.45;;
14704;SDS011;7442;50.840;3.396;2023-06-19T05:16:17;3.90;;;3.50;;
14704;SDS011;7442;50.840;3.396;2023-06-19T05:18:46;3.60;;;3.30;;
14704;SDS011;7442;50.840;3.396;2023-06-19T05:21:13;4.03;;;3.45;;
14704;SDS011;7442;50.840;3.396;2023-06-19T05:23:41;5.55;;;4.03;;
14704;SDS011;7442;50.840;3.396;2023-06-19T05:26:09;4.87;;;3.60;;
14704;SDS011;7442;50.840;3.396;2023-06-19T05:28:37;4.80;;;3.60;;
14704;SDS011;7442;50.840;3.396;2023-06-19T05:31:05;3.85;;;3.50;;
14704;SDS011;7442;50.840;3.396;2023-06-19T05:33:33;10.05;;;4.08;;
14704;SDS011;7442;50.840;3.396;2023-06-19T05:36:01;7.78;;;4.25;;
14704;SDS011;7442;50.840;3.396;2023-06-19T05:38:28;4.10;;;3.70;;
14704;SDS011;7442;50.840;3.396;2023-06-19T05:41:01;6.75;;;4.00;;
14704;SDS011;7442;50.840;3.396;2023-06-19T05:43:29;7.75;;;4.62;;
14704;SDS011;7442;50.840;3.396;2023-06-19T05:46:17;5.70;;;4.70;;
14704;SDS011;7442;50.840;3.396;2023-06-19T05:49:03;6.42;;;4.60;;
14704;SDS011;7442;50.840;3.396;2023-06-19T05:51:49;8.43;;;4.92;;
14704;SDS011;7442;50.840;3.396;2023-06-19T05:54:35;6.28;;;4.85;;
14704;SDS011;7442;50.840;3.396;2023-06-19T05:57:22;6.75;;;4.70;;
14704;SDS011;7442;50.840;3.396;2023-06-19T06:00:09;6.58;;;4.83;;
14704;SDS011;7442;50.840;3.396;2023-06-19T06:02:57;8.45;;;5.35;;
14704;SDS011;7442;50.840;3.396;2023-06-19T06:05:45;6.00;;;4.78;;
14704;SDS011;7442;50.840;3.396;2023-06-19T06:08:34;6.92;;;5.45;;
14704;SDS011;7442;50.840;3.396;2023-06-19T06:11:21;5.33;;;4.45;;
14704;SDS011;7442;50.840;3.396;2023-06-19T06:14:07;5.67;;;4.40;;
14704;SDS011;7442;50.840;3.396;2023-06-19T06:16:53;6.70;;;4.90;;
14704;SDS011;7442;50.840;3.396;2023-06-19T06:19:40;8.30;;;4.85;;
14704;SDS011;7442;50.840;3.396;2023-06-19T06:22:26;6.47;;;4.87;;
14704;SDS011;7442;50.840;3.396;2023-06-19T06:25:13;6.05;;;4.85;;
14704;SDS011;7442;50.840;3.396;2023-06-19T06:27:59;5.42;;;4.92;;
14704;SDS011;7442;50.840;3.396;2023-06-19T06:30:46;7.67;;;5.28;;
14704;SDS011;7442;50.840;3.396;2023-06-19T06:33:32;6.28;;;5.12;;
14704;SDS011;7442;50.840;3.396;2023-06-19T06:36:19;5.58;;;4.67;;
14704;SDS011;7442;50.840;3.396;2023-06-19T06:39:05;5.83;;;4.90;;
14704;SDS011;7442;50.840;3.396;2023-06-19T06:41:51;6.92;;;4.85;;
14704;SDS011;7442;50.840;3.396;2023-06-19T06:44:38;5.45;;;4.92;;
14704;SDS011;7442;50.840;3.396;2023-06-19T06:47:26;4.67;;;4.10;;
14704;SDS011;7442;50.840;3.396;2023-06-19T06:50:12;7.42;;;5.03;;
14704;SDS011;7442;50.840;3.396;2023-06-19T06:52:59;7.53;;;4.55;;
14704;SDS011;7442;50.840;3.396;2023-06-19T06:55:46;6.72;;;4.67;;
14704;SDS011;7442;50.840;3.396;2023-06-19T06:58:32;6.60;;;4.72;;
14704;SDS011;7442;50.840;3.396;2023-06-19T07:01:19;5.00;;;4.50;;
14704;SDS011;7442;50.840;3.396;2023-06-19T07:04:05;8.23;;;5.15;;
14704;SDS011;7442;50.840;3.396;2023-06-19T07:06:51;6.05;;;4.85;;
14704;SDS011;7442;50.840;3.396;2023-06-19T07:09:38;5.90;;;4.58;;
14704;SDS011;7442;50.840;3.396;2023-06-19T07:12:24;5.83;;;4.53;;
14704;SDS011;7442;50.840;3.396;2023-06-19T07:15:11;6.55;;;5.42;;
14704;SDS011;7442;50.840;3.396;2023-06-19T07:17:57;12.58;;;6.25;;
14704;SDS011;7442;50.840;3.396;2023-06-19T07:20:45;13.30;;;7.75;;
14704;SDS011;7442;50.840;3.396;2023-06-19T07:23:32;12.00;;;6.80;;
14704;SDS011;7442;50.840;3.396;2023-06-19T07:26:18;11.28;;;8.30;;
14704;SDS011;7442;50.840;3.396;2023-06-19T07:29:05;10.70;;;6.17;;
14704;SDS011;7442;50.840;3.396;2023-06-19T07:31:51;9.85;;;7.22;;
14704;SDS011;7442;50.840;3.396;2023-06-19T07:34:37;11.50;;;6.65;;
14704;SDS011;7442;50.840;3.396;2023-06-19T07:37:24;9.98;;;7.75;;
14704;SDS011;7442;50.840;3.396;2023-06-19T07:40:11;9.40;;;7.62;;
14704;SDS011;7442;50.840;3.396;2023-06-19T07:42:57;9.05;;;7.47;;
14704;SDS011;7442;50.840;3.396;2023-06-19T07:45:43;11.53;;;6.90;;
14704;SDS011;7442;50.840;3.396;2023-06-19T07:48:29;9.33;;;7.03;;
14704;SDS011;7442;50.840;3.396;2023-06-19T07:51:16;10.25;;;7.00;;
14704;SDS011;7442;50.840;3.396;2023-06-19T07:54:02;10.32;;;7.05;;
14704;SDS011;7442;50.840;3.396;2023-06-19T07:56:49;9.80;;;6.62;;
14704;SDS011;7442;50.840;3.396;2023-06-19T07:59:35;12.58;;;7.30;;
14704;SDS011;7442;50.840;3.396;2023-06-19T08:02:22;8.50;;;6.47;;
14704;SDS011;7442;50.840;3.396;2023-06-19T08:05:08;10.63;;;6.92;;
14704;SDS011;7442;50.840;3.396;2023-06-19T08:07:55;11.90;;;7.50;;
14704;SDS011;7442;50.840;3.396;2023-06-19T08:10:44;12.68;;;7.80;;
14704;SDS011;7442;50.840;3.396;2023-06-19T08:13:30;13.05;;;6.67;;
14704;SDS011;7442;50.840;3.396;2023-06-19T08:16:16;9.50;;;6.85;;
14704;SDS011;7442;50.840;3.396;2023-06-19T08:19:03;11.15;;;7.67;;
14704;SDS011;7442;50.840;3.396;2023-06-19T08:21:49;11.63;;;7.17;;
14704;SDS011;7442;50.840;3.396;2023-06-19T08:24:36;11.73;;;8.25;;
14704;SDS011;7442;50.840;3.396;2023-06-19T08:27:24;13.28;;;6.58;;
14704;SDS011;7442;50.840;3.396;2023-06-19T08:30:10;14.07;;;7.00;;
14704;SDS011;7442;50.840;3.396;2023-06-19T08:32:57;11.60;;;7.22;;
14704;SDS011;7442;50.840;3.396;2023-06-19T08:35:44;12.23;;;7.62;;
14704;SDS011;7442;50.840;3.396;2023-06-19T08:38:31;8.15;;;6.30;;
14704;SDS011;7442;50.840;3.396;2023-06-19T08:41:17;9.30;;;6.40;;
14704;SDS011;7442;50.840;3.396;2023-06-19T08:44:05;10.43;;;6.97;;
14704;SDS011;7442;50.840;3.396;2023-06-19T08:46:51;10.72;;;7.00;;
14704;SDS011;7442;50.840;3.396;2023-06-19T08:49:38;8.73;;;6.80;;
14704;SDS011;7442;50.840;3.396;2023-06-19T08:52:25;11.57;;;6.75;;
14704;SDS011;7442;50.840;3.396;2023-06-19T08:55:12;10.70;;;7.45;;
14704;SDS011;7442;50.840;3.396;2023-06-19T08:57:58;10.58;;;6.90;;
14704;SDS011;7442;50.840;3.396;2023-06-19T09:00:46;10.15;;;7.03;;
14704;SDS011;7442;50.840;3.396;2023-06-19T09:03:33;12.37;;;6.97;;
14704;SDS011;7442;50.840;3.396;2023-06-19T09:06:21;10.78;;;7.15;;
14704;SDS011;7442;50.840;3.396;2023-06-19T09:09:07;9.90;;;6.67;;
14704;SDS011;7442;50.840;3.396;2023-06-19T09:11:59;10.82;;;7.17;;
14704;SDS011;7442;50.840;3.396;2023-06-19T09:14:47;15.23;;;7.30;;
14704;SDS011;7442;50.840;3.396;2023-06-19T09:17:33;10.82;;;7.17;;
14704;SDS011;7442;50.840;3.396;2023-06-19T09:20:25;10.72;;;6.85;;
14704;SDS011;7442;50.840;3.396;2023-06-19T09:23:13;9.25;;;6.92;;
14704;SDS011;7442;50.840;3.396;2023-06-19T09:25:59;9.85;;;6.67;;
14704;SDS011;7442;50.840;3.396;2023-06-19T09:28:46;10.85;;;7.00;;
14704;SDS011;7442;50.840;3.396;2023-06-19T09:31:34;10.15;;;6.78;;
14704;SDS011;7442;50.840;3.396;2023-06-19T09:34:21;9.55;;;6.00;;
14704;SDS011;7442;50.840;3.396;2023-06-19T09:37:08;10.68;;;6.22;;
14704;SDS011;7442;50.840;3.396;2023-06-19T09:39:55;10.38;;;7.42;;
14704;SDS011;7442;50.840;3.396;2023-06-19T09:42:43;11.97;;;8.23;;
14704;SDS011;7442;50.840;3.396;2023-06-19T09:45:30;9.23;;;7.15;;
14704;SDS011;7442;50.840;3.396;2023-06-19T09:48:19;9.10;;;6.58;;
14704;SDS011;7442;50.840;3.396;2023-06-19T09:54:08;9.73;;;6.90;;
14704;SDS011;7442;50.840;3.396;2023-06-19T09:56:56;8.60;;;6.40;;
14704;SDS011;7442;50.840;3.396;2023-06-19T09:59:45;10.65;;;6.70;;
14704;SDS011;7442;50.840;3.396;2023-06-19T10:02:37;10.60;;;6.70;;
14704;SDS011;7442;50.840;3.396;2023-06-19T10:05:30;10.35;;;6.72;;
14704;SDS011;7442;50.840;3.396;2023-06-19T10:08:26;13.15;;;6.95;;
14704;SDS011;7442;50.840;3.396;2023-06-19T10:11:16;9.95;;;6.62;;
14704;SDS011;7442;50.840;3.396;2023-06-19T10:14:05;8.30;;;6.70;;
14704;SDS011;7442;50.840;3.396;2023-06-19T10:16:52;10.88;;;6.72;;
14704;SDS011;7442;50.840;3.396;2023-06-19T10:19:48;7.80;;;6.65;;
14704;SDS011;7442;50.840;3.396;2023-06-19T10:22:38;9.18;;;6.55;;
14704;SDS011;7442;50.840;3.396;2023-06-19T10:25:29;9.33;;;7.15;;
14704;SDS011;7442;50.840;3.396;2023-06-19T10:31:13;8.08;;;6.47;;
14704;SDS011;7442;50.840;3.396;2023-06-19T10:33:59;9.88;;;6.78;;
14704;SDS011;7442;50.840;3.396;2023-06-19T10:36:48;11.55;;;6.10;;
14704;SDS011;7442;50.840;3.396;2023-06-19T10:39:35;9.50;;;6.87;;
14704;SDS011;7442;50.840;3.396;2023-06-19T10:42:21;7.83;;;6.12;;
14704;SDS011;7442;50.840;3.396;2023-06-19T10:45:08;8.85;;;6.22;;
14704;SDS011;7442;50.840;3.396;2023-06-19T10:47:57;7.78;;;6.03;;
14704;SDS011;7442;50.840;3.396;2023-06-19T10:50:49;10.32;;;7.15;;
14704;SDS011;7442;50.840;3.396;2023-06-19T10:53:36;8.03;;;6.10;;
14704;SDS011;7442;50.840;3.396;2023-06-19T10:56:22;8.45;;;6.05;;
14704;SDS011;7442;50.840;3.396;2023-06-19T10:59:10;7.75;;;5.90;;
14704;SDS011;7442;50.840;3.396;2023-06-19T11:01:57;7.97;;;5.37;;
14704;SDS011;7442;50.840;3.396;2023-06-19T11:04:40;7.90;;;5.90;;
14704;SDS011;7442;50.840;3.396;2023-06-19T11:07:27;7.22;;;5.75;;
14704;SDS011;7442;50.840;3.396;2023-06-19T11:10:18;7.35;;;5.12;;
14704;SDS011;7442;50.840;3.396;2023-06-19T11:13:07;7.20;;;5.90;;
14704;SDS011;7442;50.840;3.396;2023-06-19T11:15:55;5.95;;;5.20;;
14704;SDS011;7442;50.840;3.396;2023-06-19T11:18:43;9.28;;;5.92;;
14704;SDS011;7442;50.840;3.396;2023-06-19T11:21:32;8.65;;;5.87;;
14704;SDS011;7442;50.840;3.396;2023-06-19T11:24:22;7.40;;;5.75;;
14704;SDS011;7442;50.840;3.396;2023-06-19T11:27:13;9.18;;;6.10;;
14704;SDS011;7442;50.840;3.396;2023-06-19T11:30:11;8.45;;;6.42;;
14704;SDS011;7442;50.840;3.396;2023-06-19T11:32:58;8.03;;;6.12;;
14704;SDS011;7442;50.840;3.396;2023-06-19T11:35:48;8.15;;;6.30;;
14704;SDS011;7442;50.840;3.396;2023-06-19T11:38:35;9.85;;;6.05;;
14704;SDS011;7442;50.840;3.396;2023-06-19T11:41:29;8.40;;;5.90;;
14704;SDS011;7442;50.840;3.396;2023-06-19T11:44:12;7.25;;;5.87;;
14704;SDS011;7442;50.840;3.396;2023-06-19T11:47:00;8.15;;;5.55;;
14704;SDS011;7442;50.840;3.396;2023-06-19T11:49:48;10.35;;;5.83;;
14704;SDS011;7442;50.840;3.396;2023-06-19T11:52:39;7.50;;;5.92;;
14704;SDS011;7442;50.840;3.396;2023-06-19T11:55:27;11.95;;;6.30;;
14704;SDS011;7442;50.840;3.396;2023-06-19T11:58:14;7.35;;;5.58;;
14704;SDS011;7442;50.840;3.396;2023-06-19T12:01:00;5.65;;;5.15;;
14704;SDS011;7442;50.840;3.396;2023-06-19T12:03:47;6.20;;;5.40;;
14704;SDS011;7442;50.840;3.396;2023-06-19T12:06:33;8.20;;;5.30;;
14704;SDS011;7442;50.840;3.396;2023-06-19T12:09:20;6.70;;;5.37;;
14704;SDS011;7442;50.840;3.396;2023-06-19T12:12:07;7.92;;;5.78;;
14704;SDS011;7442;50.840;3.396;2023-06-19T12:14:53;7.83;;;5.65;;
14704;SDS011;7442;50.840;3.396;2023-06-19T12:17:40;8.18;;;5.12;;
14704;SDS011;7442;50.840;3.396;2023-06-19T12:20:26;8.70;;;5.40;;
14704;SDS011;7442;50.840;3.396;2023-06-19T12:23:13;6.40;;;5.40;;
14704;SDS011;7442;50.840;3.396;2023-06-19T12:25:59;7.30;;;5.17;;
14704;SDS011;7442;50.840;3.396;2023-06-19T12:28:45;7.08;;;4.92;;
14704;SDS011;7442;50.840;3.396;2023-06-19T12:31:31;19.50;;;6.03;;
14704;SDS011;7442;50.840;3.396;2023-06-19T12:34:18;13.38;;;6.37;;
14704;SDS011;7442;50.840;3.396;2023-06-19T12:37:05;9.58;;;5.12;;
14704;SDS011;7442;50.840;3.396;2023-06-19T12:39:51;9.38;;;5.20;;
14704;SDS011;7442;50.840;3.396;2023-06-19T12:42:38;9.33;;;6.10;;
14704;SDS011;7442;50.840;3.396;2023-06-19T12:45:24;7.47;;;5.50;;
14704;SDS011;7442;50.840;3.396;2023-06-19T12:48:10;7.72;;;5.72;;
14704;SDS011;7442;50.840;3.396;2023-06-19T12:50:57;5.58;;;5.00;;
14704;SDS011;7442;50.840;3.396;2023-06-19T12:53:43;6.50;;;5.08;;
14704;SDS011;7442;50.840;3.396;2023-06-19T12:56:29;9.63;;;5.95;;
14704;SDS011;7442;50.840;3.396;2023-06-19T12:59:16;6.58;;;5.28;;
14704;SDS011;7442;50.840;3.396;2023-06-19T13:02:02;8.70;;;5.42;;
14704;SDS011;7442;50.840;3.396;2023-06-19T13:04:49;6.62;;;5.85;;
14704;SDS011;7442;50.840;3.396;2023-06-19T13:07:36;6.35;;;5.58;;
14704;SDS011;7442;50.840;3.396;2023-06-19T13:10:22;9.25;;;5.72;;
14704;SDS011;7442;50.840;3.396;2023-06-19T13:13:09;8.13;;;5.90;;
14704;SDS011;7442;50.840;3.396;2023-06-19T13:15:56;7.47;;;5.65;;
14704;SDS011;7442;50.840;3.396;2023-06-19T13:18:42;12.45;;;5.65;;
14704;SDS011;7442;50.840;3.396;2023-06-19T13:21:28;10.48;;;6.03;;
14704;SDS011;7442;50.840;3.396;2023-06-19T13:24:15;8.70;;;6.50;;
14704;SDS011;7442;50.840;3.396;2023-06-19T13:27:01;9.23;;;6.42;;
14704;SDS011;7442;50.840;3.396;2023-06-19T13:29:48;8.63;;;6.20;;
14704;SDS011;7442;50.840;3.396;2023-06-19T13:32:40;10.58;;;6.58;;
14704;SDS011;7442;50.840;3.396;2023-06-19T13:35:26;7.60;;;6.47;;
14704;SDS011;7442;50.840;3.396;2023-06-19T13:38:12;9.78;;;7.05;;
14704;SDS011;7442;50.840;3.396;2023-06-19T13:41:00;9.40;;;7.45;;
14704;SDS011;7442;50.840;3.396;2023-06-19T13:43:46;12.20;;;6.67;;
14704;SDS011;7442;50.840;3.396;2023-06-19T13:46:32;8.88;;;6.60;;
14704;SDS011;7442;50.840;3.396;2023-06-19T13:49:19;7.50;;;6.40;;
14704;SDS011;7442;50.840;3.396;2023-06-19T13:52:05;8.28;;;6.22;;
14704;SDS011;7442;50.840;3.396;2023-06-19T13:54:52;7.45;;;5.95;;
14704;SDS011;7442;50.840;3.396;2023-06-19T13:57:39;8.38;;;5.80;;
14704;SDS011;7442;50.840;3.396;2023-06-19T14:00:25;8.15;;;6.53;;
14704;SDS011;7442;50.840;3.396;2023-06-19T14:03:12;8.25;;;5.90;;
14704;SDS011;7442;50.840;3.396;2023-06-19T14:05:59;6.87;;;5.80;;
14704;SDS011;7442;50.840;3.396;2023-06-19T14:08:45;6.95;;;5.55;;
14704;SDS011;7442;50.840;3.396;2023-06-19T14:11:31;6.28;;;5.60;;
14704;SDS011;7442;50.840;3.396;2023-06-19T14:14:18;6.30;;;5.30;;
14704;SDS011;7442;50.840;3.396;2023-06-19T14:17:04;8.28;;;6.10;;
14704;SDS011;7442;50.840;3.396;2023-06-19T14:19:51;8.35;;;5.72;;
14704;SDS011;7442;50.840;3.396;2023-06-19T14:22:39;5.85;;;5.25;;
14704;SDS011;7442;50.840;3.396;2023-06-19T14:25:26;6.62;;;5.67;;
14704;SDS011;7442;50.840;3.396;2023-06-19T14:28:12;7.87;;;5.47;;
14704;SDS011;7442;50.840;3.396;2023-06-19T14:30:59;6.50;;;5.90;;
14704;SDS011;7442;50.840;3.396;2023-06-19T14:33:46;7.20;;;5.45;;
14704;SDS011;7442;50.840;3.396;2023-06-19T14:36:32;8.28;;;5.58;;
14704;SDS011;7442;50.840;3.396;2023-06-19T14:39:18;8.68;;;5.60;;
14704;SDS011;7442;50.840;3.396;2023-06-19T14:42:05;6.58;;;5.42;;
14704;SDS011;7442;50.840;3.396;2023-06-19T14:44:51;7.15;;;5.50;;
14704;SDS011;7442;50.840;3.396;2023-06-19T14:47:38;6.30;;;5.30;;
14704;SDS011;7442;50.840;3.396;2023-06-19T14:50:24;5.92;;;5.42;;
14704;SDS011;7442;50.840;3.396;2023-06-19T14:53:11;6.83;;;5.72;;
14704;SDS011;7442;50.840;3.396;2023-06-19T14:55:57;7.55;;;5.42;;
14704;SDS011;7442;50.840;3.396;2023-06-19T14:58:43;7.15;;;5.65;;
14704;SDS011;7442;50.840;3.396;2023-06-19T15:01:30;6.20;;;5.47;;
14704;SDS011;7442;50.840;3.396;2023-06-19T15:04:16;8.23;;;5.37;;
14704;SDS011;7442;50.840;3.396;2023-06-19T15:07:02;6.70;;;5.05;;
14704;SDS011;7442;50.840;3.396;2023-06-19T15:09:50;8.58;;;5.37;;
14704;SDS011;7442;50.840;3.396;2023-06-19T15:12:36;6.22;;;5.45;;
14704;SDS011;7442;50.840;3.396;2023-06-19T15:15:22;8.28;;;5.60;;
14704;SDS011;7442;50.840;3.396;2023-06-19T15:18:09;7.22;;;5.67;;
14704;SDS011;7442;50.840;3.396;2023-06-19T15:20:56;6.47;;;5.35;;
14704;SDS011;7442;50.840;3.396;2023-06-19T15:23:42;6.10;;;5.15;;
14704;SDS011;7442;50.840;3.396;2023-06-19T15:26:29;9.50;;;5.35;;
14704;SDS011;7442;50.840;3.396;2023-06-19T15:29:17;8.80;;;5.72;;
14704;SDS011;7442;50.840;3.396;2023-06-19T15:32:04;6.33;;;5.67;;
14704;SDS011;7442;50.840;3.396;2023-06-19T15:34:50;7.40;;;5.97;;
14704;SDS011;7442;50.840;3.396;2023-06-19T15:37:37;5.90;;;5.28;;
14704;SDS011;7442;50.840;3.396;2023-06-19T15:40:23;6.65;;;5.33;;
14704;SDS011;7442;50.840;3.396;2023-06-19T15:43:11;6.75;;;5.80;;
14704;SDS011;7442;50.840;3.396;2023-06-19T15:45:58;6.45;;;5.30;;
14704;SDS011;7442;50.840;3.396;2023-06-19T15:48:44;6.05;;;5.45;;
14704;SDS011;7442;50.840;3.396;2023-06-19T15:51:31;9.53;;;5.25;;
14704;SDS011;7442;50.840;3.396;2023-06-19T15:54:18;7.62;;;5.65;;
14704;SDS011;7442;50.840;3.396;2023-06-19T15:57:06;7.85;;;5.78;;
14704;SDS011;7442;50.840;3.396;2023-06-19T15:59:52;8.88;;;5.97;;
14704;SDS011;7442;50.840;3.396;2023-06-19T16:02:40;7.83;;;5.85;;
14704;SDS011;7442;50.840;3.396;2023-06-19T16:05:31;7.00;;;5.47;;
14704;SDS011;7442;50.840;3.396;2023-06-19T16:08:18;6.33;;;5.50;;
14704;SDS011;7442;50.840;3.396;2023-06-19T16:11:04;8.63;;;5.65;;
14704;SDS011;7442;50.840;3.396;2023-06-19T16:13:51;7.03;;;5.00;;
14704;SDS011;7442;50.840;3.396;2023-06-19T16:16:37;7.95;;;5.40;;
14704;SDS011;7442;50.840;3.396;2023-06-19T16:19:24;6.90;;;5.37;;
14704;SDS011;7442;50.840;3.396;2023-06-19T16:22:10;8.60;;;5.33;;
14704;SDS011;7442;50.840;3.396;2023-06-19T16:24:56;6.60;;;5.22;;